createdAt,value
2018-02-20T00:01:10.822Z,3.00
2018-02-20T00:03:39.137Z,3.10
2018-02-20T00:06:06.545Z,3.10
2018-02-20T00:08:34.000Z,3.10
2018-02-20T00:11:01.404Z,3.20
2018-02-20T00:13:30.354Z,3.10
2018-02-20T00:15:57.833Z,3.10
2018-02-20T00:18:25.261Z,3.20
2018-02-20T00:20:53.440Z,3.20
2018-02-20T00:23:21.622Z,3.20
2018-02-20T00:25:49.805Z,3.20
2018-02-20T00:28:18.013Z,3.10
2018-02-20T00:30:46.235Z,3.10
2018-02-20T00:33:13.655Z,3.00
2018-02-20T00:35:41.847Z,2.90
2018-02-20T00:38:10.040Z,2.90
2018-02-20T00:40:38.238Z,2.80
2018-02-20T00:43:05.675Z,2.80
2018-02-20T00:45:33.081Z,2.70
2018-02-20T00:48:00.563Z,2.70
2018-02-20T00:50:28.020Z,2.60
2018-02-20T00:52:55.434Z,2.50
2018-02-20T00:55:22.860Z,2.60
2018-02-20T00:57:50.277Z,2.60
2018-02-20T01:00:17.798Z,2.60
2018-02-20T01:02:45.288Z,2.60
2018-02-20T01:05:12.688Z,2.60
2018-02-20T01:07:40.122Z,2.60
2018-02-20T01:10:07.566Z,2.50
2018-02-20T01:12:34.982Z,2.60
2018-02-20T01:15:02.491Z,2.60
2018-02-20T01:17:29.922Z,2.60
2018-02-20T01:19:57.329Z,2.50
2018-02-20T01:22:24.754Z,2.50
2018-02-20T01:24:52.165Z,2.40
2018-02-20T01:27:19.650Z,2.40
2018-02-20T01:29:47.087Z,2.40
2018-02-20T01:32:15.257Z,2.30
2018-02-20T01:34:42.687Z,2.30
2018-02-20T01:37:10.090Z,2.20
2018-02-20T01:39:37.516Z,2.10
2018-02-20T01:42:04.913Z,2.00
2018-02-20T01:44:32.434Z,2.00
2018-02-20T01:46:59.902Z,2.00
2018-02-20T01:49:27.328Z,1.90
2018-02-20T01:51:56.250Z,1.90
2018-02-20T01:54:24.496Z,1.90
2018-02-20T01:56:51.918Z,1.90
2018-02-20T01:59:20.238Z,1.90
2018-02-20T02:01:47.670Z,1.90
2018-02-20T02:04:15.091Z,1.90
2018-02-20T02:06:42.527Z,1.90
2018-02-20T02:09:09.938Z,1.90
2018-02-20T02:11:37.354Z,1.90
2018-02-20T02:14:04.772Z,1.90
2018-02-20T02:16:32.206Z,1.90
2018-02-20T02:18:59.668Z,1.90
2018-02-20T02:21:27.082Z,1.90
2018-02-20T02:23:54.494Z,1.90
2018-02-20T02:26:21.921Z,1.90
2018-02-20T02:28:49.332Z,1.90
2018-02-20T02:31:16.781Z,1.80
2018-02-20T02:33:44.972Z,1.90
2018-02-20T02:36:13.148Z,1.90
2018-02-20T02:38:41.415Z,1.90
2018-02-20T02:41:08.813Z,1.90
2018-02-20T02:43:36.994Z,1.90
2018-02-20T02:46:05.175Z,1.90
2018-02-20T02:48:33.341Z,1.90
2018-02-20T02:51:00.749Z,1.90
2018-02-20T02:53:28.183Z,1.90
2018-02-20T02:55:55.606Z,1.90
2018-02-20T02:58:23.026Z,1.80
2018-02-20T03:00:50.450Z,1.80
2018-02-20T03:03:17.906Z,1.70
2018-02-20T03:05:45.379Z,1.70
2018-02-20T03:08:12.796Z,1.70
2018-02-20T03:10:40.304Z,1.70
2018-02-20T03:13:07.717Z,1.70
2018-02-20T03:15:35.133Z,1.70
2018-02-20T03:18:02.548Z,1.60
2018-02-20T03:20:29.975Z,1.60
2018-02-20T03:22:57.464Z,1.60
2018-02-20T03:25:24.939Z,1.60
2018-02-20T03:27:52.361Z,1.60
2018-02-20T03:30:20.562Z,1.50
2018-02-20T03:32:48.009Z,1.50
2018-02-20T03:35:15.434Z,1.50
2018-02-20T03:37:42.842Z,1.40
2018-02-20T03:40:11.028Z,1.50
2018-02-20T03:42:38.521Z,1.50
2018-02-20T03:45:05.996Z,1.40
2018-02-20T03:47:33.414Z,1.40
2018-02-20T03:50:00.823Z,1.40
2018-02-20T03:52:28.247Z,1.40
2018-02-20T03:54:55.654Z,1.40
2018-02-20T03:57:23.836Z,1.30
2018-02-20T03:59:52.065Z,1.30
2018-02-20T04:02:19.473Z,1.30
2018-02-20T04:04:46.925Z,1.20
2018-02-20T04:07:14.329Z,1.10
2018-02-20T04:09:41.814Z,1.10
2018-02-20T04:12:09.217Z,1.10
2018-02-20T04:14:36.639Z,1.10
2018-02-20T04:17:04.114Z,1.10
2018-02-20T04:19:31.541Z,1.10
2018-02-20T04:21:58.945Z,1.10
2018-02-20T04:24:26.418Z,1.10
2018-02-20T04:26:53.830Z,1.00
2018-02-20T04:29:21.241Z,1.00
2018-02-20T04:31:49.417Z,1.00
2018-02-20T04:34:17.613Z,1.00
2018-02-20T04:36:45.914Z,1.00
2018-02-20T04:39:13.382Z,1.00
2018-02-20T04:41:40.808Z,1.00
2018-02-20T04:44:08.206Z,0.90
2018-02-20T04:46:36.377Z,0.90
2018-02-20T04:49:04.553Z,0.90
2018-02-20T04:51:32.785Z,0.80
2018-02-20T04:54:00.206Z,0.80
2018-02-20T04:56:27.619Z,0.80
2018-02-20T04:58:55.031Z,0.70
2018-02-20T05:01:22.442Z,0.60
2018-02-20T05:03:49.867Z,0.60
2018-02-20T05:06:17.291Z,0.60
2018-02-20T05:08:44.776Z,0.70
2018-02-20T05:11:12.239Z,0.70
2018-02-20T05:13:39.642Z,0.70
2018-02-20T05:16:07.074Z,0.70
2018-02-20T05:18:34.527Z,0.80
2018-02-20T05:21:02.003Z,0.80
2018-02-20T05:23:29.424Z,0.70
2018-02-20T05:25:56.835Z,0.70
2018-02-20T05:28:24.258Z,0.70
2018-02-20T05:30:51.666Z,0.70
2018-02-20T05:33:19.153Z,0.60
2018-02-20T05:35:46.583Z,0.60
2018-02-20T05:38:14.787Z,0.50
2018-02-20T05:40:42.261Z,0.40
2018-02-20T05:43:09.689Z,0.40
2018-02-20T05:45:37.200Z,0.50
2018-02-20T05:48:04.612Z,0.60
2018-02-20T05:50:32.880Z,0.60
2018-02-20T05:53:00.270Z,0.60
2018-02-20T05:55:27.712Z,0.70
2018-02-20T05:57:55.187Z,0.70
2018-02-20T06:00:23.329Z,0.70
2018-02-20T06:02:51.523Z,0.70
2018-02-20T06:05:18.978Z,0.70
2018-02-20T06:07:47.171Z,0.60
2018-02-20T06:10:15.410Z,0.60
2018-02-20T06:12:42.810Z,0.60
2018-02-20T06:15:10.986Z,0.70
2018-02-20T06:17:38.407Z,0.70
2018-02-20T06:20:05.810Z,0.60
2018-02-20T06:22:33.284Z,0.60
2018-02-20T06:25:00.710Z,0.60
2018-02-20T06:27:28.123Z,0.50
2018-02-20T06:29:55.546Z,0.40
2018-02-20T06:32:22.950Z,0.40
2018-02-20T06:34:51.194Z,0.50
2018-02-20T06:37:18.609Z,0.40
2018-02-20T06:39:46.137Z,0.50
2018-02-20T06:42:14.324Z,0.60
2018-02-20T06:44:41.758Z,0.60
2018-02-20T06:47:09.943Z,0.70
2018-02-20T06:49:38.121Z,0.70
2018-02-20T06:52:05.529Z,0.70
2018-02-20T06:54:32.948Z,0.70
2018-02-20T06:57:00.574Z,0.70
2018-02-20T06:59:27.962Z,0.70
2018-02-20T07:01:55.399Z,0.70
2018-02-20T07:04:22.867Z,0.70
2018-02-20T07:06:50.350Z,0.70
2018-02-20T07:09:17.765Z,0.70
2018-02-20T07:11:46.699Z,0.60
2018-02-20T07:14:15.003Z,0.60
2018-02-20T07:16:42.398Z,0.60
2018-02-20T07:19:09.841Z,0.70
2018-02-20T07:21:37.226Z,0.70
2018-02-20T07:24:04.671Z,0.70
2018-02-20T07:26:32.076Z,0.70
2018-02-20T07:28:59.487Z,0.70
2018-02-20T07:31:27.671Z,0.80
2018-02-20T07:33:55.845Z,0.80
2018-02-20T07:36:24.026Z,0.70
2018-02-20T07:38:51.535Z,0.70
2018-02-20T07:41:19.734Z,0.80
2018-02-20T07:43:47.160Z,0.80
2018-02-20T07:46:15.377Z,0.90
2018-02-20T07:48:42.774Z,0.90
2018-02-20T07:51:10.195Z,1.00
2018-02-20T07:53:38.385Z,1.10
2018-02-20T07:56:05.881Z,1.00
2018-02-20T07:58:33.437Z,1.10
2018-02-20T08:01:00.910Z,1.10
2018-02-20T08:03:29.073Z,1.00
2018-02-20T08:05:57.266Z,1.00
2018-02-20T08:08:25.465Z,1.00
2018-02-20T08:10:52.932Z,1.00
2018-02-20T08:13:20.309Z,1.10
2018-02-20T08:15:47.726Z,1.50
2018-02-20T08:18:15.146Z,1.90
2018-02-20T08:20:42.606Z,1.90
2018-02-20T08:23:10.013Z,1.90
2018-02-20T08:25:37.444Z,1.90
2018-02-20T08:28:05.012Z,1.80
2018-02-20T08:30:33.200Z,1.70
2018-02-20T08:33:00.614Z,1.70
2018-02-20T08:35:28.041Z,1.70
2018-02-20T08:37:55.466Z,1.70
2018-02-20T08:40:22.893Z,1.70
2018-02-20T08:42:50.287Z,1.60
2018-02-20T08:45:17.710Z,1.50
2018-02-20T08:47:45.171Z,1.60
2018-02-20T08:50:12.576Z,1.60
2018-02-20T08:52:40.002Z,1.50
2018-02-20T08:55:07.458Z,1.50
2018-02-20T08:57:35.769Z,1.70
2018-02-20T09:00:04.056Z,1.80
2018-02-20T09:02:32.216Z,1.90
2018-02-20T09:05:00.382Z,1.80
2018-02-20T09:07:27.797Z,1.80
2018-02-20T09:09:55.222Z,1.90
2018-02-20T09:12:22.731Z,2.00
2018-02-20T09:14:50.149Z,2.00
2018-02-20T09:17:17.558Z,2.00
2018-02-20T09:19:45.799Z,2.00
2018-02-20T09:22:13.325Z,2.00
2018-02-20T09:24:41.512Z,2.20
2018-02-20T09:27:08.930Z,2.10
2018-02-20T09:29:36.446Z,2.30
2018-02-20T09:32:03.855Z,2.30
2018-02-20T09:34:32.793Z,2.40
2018-02-20T09:37:00.985Z,2.40
2018-02-20T09:39:29.290Z,2.40
2018-02-20T09:41:56.716Z,2.40
2018-02-20T09:44:24.242Z,2.40
2018-02-20T09:46:51.704Z,2.50
2018-02-20T09:49:19.117Z,2.60
2018-02-20T09:51:46.550Z,2.60
2018-02-20T09:54:13.998Z,2.70
2018-02-20T09:56:41.413Z,2.70
2018-02-20T09:59:08.834Z,2.80
2018-02-20T10:01:36.257Z,2.90
2018-02-20T10:04:03.661Z,2.90
2018-02-20T10:06:31.090Z,2.90
2018-02-20T10:08:58.505Z,2.90
2018-02-20T10:11:25.926Z,2.90
2018-02-20T10:13:53.347Z,2.90
2018-02-20T10:16:20.792Z,3.00
2018-02-20T10:18:48.170Z,3.00
2018-02-20T10:21:15.668Z,3.00
2018-02-20T10:23:43.085Z,3.20
2018-02-20T10:26:11.274Z,3.40
2018-02-20T10:28:39.457Z,3.50
2018-02-20T10:31:06.874Z,3.50
2018-02-20T10:33:34.431Z,3.60
2018-02-20T10:36:01.937Z,3.60
2018-02-20T10:38:29.366Z,3.50
2018-02-20T10:40:56.839Z,3.60
2018-02-20T10:43:24.267Z,3.70
2018-02-20T10:45:51.681Z,3.60
2018-02-20T10:48:19.146Z,3.50
2018-02-20T10:50:46.541Z,3.70
2018-02-20T10:53:14.102Z,3.90
2018-02-20T10:55:41.519Z,3.90
2018-02-20T10:58:09.731Z,3.70
2018-02-20T11:00:37.176Z,3.80
2018-02-20T11:03:05.365Z,4.10
2018-02-20T11:05:33.546Z,4.10
2018-02-20T11:08:01.754Z,4.10
2018-02-20T11:10:29.339Z,4.00
2018-02-20T11:12:56.755Z,4.10
2018-02-20T11:15:24.192Z,4.20
2018-02-20T11:17:51.609Z,4.20
2018-02-20T11:20:19.810Z,4.40
2018-02-20T11:22:47.262Z,4.40
2018-02-20T11:25:14.698Z,4.60
2018-02-20T11:27:42.181Z,4.90
2018-02-20T11:30:09.606Z,5.20
2018-02-20T11:32:37.034Z,5.30
2018-02-20T11:35:04.462Z,5.40
2018-02-20T11:37:31.882Z,5.80
2018-02-20T11:39:59.301Z,6.10
2018-02-20T11:42:26.719Z,6.00
2018-02-20T11:44:54.133Z,6.30
2018-02-20T11:47:21.612Z,6.00
2018-02-20T11:49:49.778Z,5.50
2018-02-20T11:52:17.211Z,5.50
2018-02-20T11:54:44.840Z,5.70
2018-02-20T11:57:12.410Z,6.10
2018-02-20T11:59:39.827Z,6.40
2018-02-20T12:02:07.346Z,6.50
2018-02-20T12:04:35.517Z,7.20
2018-02-20T12:07:02.990Z,7.20
2018-02-20T12:09:30.693Z,8.30
2018-02-20T12:11:58.152Z,8.50
2018-02-20T12:14:25.573Z,8.00
2018-02-20T12:16:53.816Z,9.20
2018-02-20T12:19:21.242Z,9.10
2018-02-20T12:21:49.557Z,9.20
2018-02-20T12:24:17.017Z,9.20
2018-02-20T12:26:44.457Z,11.20
2018-02-20T12:29:12.639Z,10.80
2018-02-20T12:31:40.077Z,10.80
2018-02-20T12:34:07.521Z,12.00
2018-02-20T12:36:34.946Z,12.20
2018-02-20T12:39:03.144Z,11.90
2018-02-20T12:41:31.461Z,13.10
2018-02-20T12:43:58.869Z,13.00
2018-02-20T12:46:26.282Z,12.80
2018-02-20T12:48:53.759Z,12.00
2018-02-20T12:51:21.943Z,11.00
2018-02-20T12:53:49.442Z,11.00
2018-02-20T12:56:16.885Z,9.70
2018-02-20T12:58:44.323Z,8.80
2018-02-20T13:01:12.512Z,8.50
2018-02-20T13:03:40.697Z,7.40
2018-02-20T13:06:08.914Z,6.90
2018-02-20T13:08:36.326Z,6.90
2018-02-20T13:11:03.746Z,6.90
2018-02-20T13:13:31.176Z,6.80
2018-02-20T13:15:59.433Z,6.70
2018-02-20T13:18:26.853Z,6.70
2018-02-20T13:20:54.339Z,7.50
2018-02-20T13:23:21.762Z,8.20
2018-02-20T13:25:49.185Z,8.80
2018-02-20T13:28:16.622Z,9.20
2018-02-20T13:30:44.852Z,9.00
2018-02-20T13:33:12.293Z,9.00
2018-02-20T13:35:39.878Z,9.60
2018-02-20T13:38:07.271Z,10.40
2018-02-20T13:40:34.706Z,11.00
2018-02-20T13:43:02.137Z,11.30
2018-02-20T13:45:29.637Z,10.00
2018-02-20T13:47:57.075Z,8.70
2018-02-20T13:50:25.169Z,8.50
2018-02-20T13:52:53.385Z,8.00
2018-02-20T13:55:20.814Z,8.00
2018-02-20T13:57:48.289Z,7.80
2018-02-20T14:00:15.814Z,7.50
2018-02-20T14:02:43.257Z,7.80
2018-02-20T14:05:10.674Z,8.10
2018-02-20T14:07:38.110Z,7.50
2018-02-20T14:10:05.524Z,7.10
2018-02-20T14:12:33.025Z,6.60
2018-02-20T14:15:00.506Z,6.30
2018-02-20T14:17:28.076Z,6.10
2018-02-20T14:19:56.242Z,5.70
2018-02-20T14:22:24.452Z,5.50
2018-02-20T14:24:51.869Z,5.40
2018-02-20T14:27:19.386Z,5.60
2018-02-20T14:29:46.823Z,6.40
2018-02-20T14:32:15.016Z,7.30
2018-02-20T14:34:43.194Z,7.20
2018-02-20T14:37:11.385Z,7.40
2018-02-20T14:39:39.631Z,7.70
2018-02-20T14:42:07.033Z,7.70
2018-02-20T14:44:35.258Z,7.60
2018-02-20T14:47:02.682Z,7.60
2018-02-20T14:49:30.095Z,7.30
2018-02-20T14:51:57.518Z,7.20
2018-02-20T14:54:24.929Z,6.90
2018-02-20T14:56:52.412Z,6.50
2018-02-20T14:59:19.879Z,6.10
2018-02-20T15:01:47.380Z,5.80
2018-02-20T15:04:14.808Z,5.70
2018-02-20T15:06:42.293Z,5.60
2018-02-20T15:09:09.721Z,5.60
2018-02-20T15:11:37.915Z,5.30
2018-02-20T15:14:05.353Z,5.40
2018-02-20T15:16:32.781Z,5.60
2018-02-20T15:19:00.237Z,5.90
2018-02-20T15:21:27.723Z,6.00
2018-02-20T15:23:55.178Z,5.90
2018-02-20T15:26:22.603Z,5.60
2018-02-20T15:28:50.125Z,5.10
2018-02-20T15:31:17.553Z,4.90
2018-02-20T15:33:45.761Z,5.10
2018-02-20T15:36:13.189Z,5.10
2018-02-20T15:38:40.638Z,5.00
2018-02-20T15:41:08.053Z,4.90
2018-02-20T15:43:35.474Z,4.70
2018-02-20T15:46:02.907Z,4.60
2018-02-20T15:48:30.373Z,4.60
2018-02-20T15:50:57.960Z,4.50
2018-02-20T15:53:25.406Z,4.40
2018-02-20T15:55:52.849Z,4.30
2018-02-20T15:58:20.272Z,4.20
2018-02-20T16:00:47.724Z,4.10
2018-02-20T16:03:15.929Z,4.20
2018-02-20T16:05:43.336Z,4.10
2018-02-20T16:08:10.791Z,4.10
2018-02-20T16:10:38.214Z,4.00
2018-02-20T16:13:05.612Z,4.00
2018-02-20T16:15:33.049Z,4.00
2018-02-20T16:18:00.471Z,4.00
2018-02-20T16:20:27.924Z,4.00
2018-02-20T16:22:55.337Z,3.90
2018-02-20T16:25:22.820Z,3.80
2018-02-20T16:27:50.982Z,3.70
2018-02-20T16:30:19.193Z,3.70
2018-02-20T16:32:46.689Z,3.70
2018-02-20T16:35:14.137Z,3.70
2018-02-20T16:37:41.590Z,3.60
2018-02-20T16:40:09.029Z,3.60
2018-02-20T16:42:36.464Z,3.60
2018-02-20T16:45:03.911Z,3.60
2018-02-20T16:47:31.316Z,3.60
2018-02-20T16:49:58.747Z,3.60
2018-02-20T16:52:26.225Z,3.60
2018-02-20T16:54:53.698Z,3.60
2018-02-20T16:57:21.146Z,3.60
2018-02-20T16:59:48.588Z,3.60
2018-02-20T17:02:16.775Z,3.40
2018-02-20T17:04:45.001Z,3.40
2018-02-20T17:07:12.399Z,3.40
2018-02-20T17:09:39.942Z,3.40
2018-02-20T17:12:07.374Z,3.30
2018-02-20T17:14:35.573Z,3.20
2018-02-20T17:17:02.990Z,3.20
2018-02-20T17:19:30.401Z,3.20
2018-02-20T17:21:57.841Z,3.20
2018-02-20T17:24:25.359Z,3.20
2018-02-20T17:26:52.837Z,3.20
2018-02-20T17:29:20.201Z,3.20
2018-02-20T17:31:47.630Z,3.20
2018-02-20T17:34:16.098Z,3.20
2018-02-20T17:36:43.525Z,3.20
2018-02-20T17:39:10.945Z,3.10
2018-02-20T17:41:39.151Z,3.00
2018-02-20T17:44:07.330Z,3.00
2018-02-20T17:46:35.511Z,3.00
2018-02-20T17:49:03.773Z,3.00
2018-02-20T17:51:31.169Z,3.00
2018-02-20T17:53:58.589Z,3.00
2018-02-20T17:56:26.014Z,3.00
2018-02-20T17:58:54.211Z,2.90
2018-02-20T18:01:21.682Z,2.90
2018-02-20T18:03:49.170Z,2.80
2018-02-20T18:06:16.586Z,2.80
2018-02-20T18:08:44.032Z,2.80
2018-02-20T18:11:11.461Z,2.80
2018-02-20T18:13:38.871Z,2.80
2018-02-20T18:16:06.282Z,2.70
2018-02-20T18:18:33.773Z,2.70
2018-02-20T18:21:01.244Z,2.80
2018-02-20T18:23:28.679Z,2.70
2018-02-20T18:25:56.998Z,2.60
2018-02-20T18:28:25.176Z,2.60
2018-02-20T18:30:53.371Z,2.50
2018-02-20T18:33:20.790Z,2.50
2018-02-20T18:35:48.218Z,2.40
2018-02-20T18:38:15.646Z,2.40
2018-02-20T18:40:43.890Z,2.40
2018-02-20T18:43:11.307Z,2.40
2018-02-20T18:45:39.586Z,2.30
2018-02-20T18:48:07.762Z,2.30
2018-02-20T18:50:35.270Z,2.30
2018-02-20T18:53:02.690Z,2.30
2018-02-20T18:55:30.132Z,2.30
2018-02-20T18:57:57.581Z,2.30
2018-02-20T19:00:25.766Z,2.30
2018-02-20T19:02:53.169Z,2.30
2018-02-20T19:05:20.699Z,2.30
2018-02-20T19:07:48.178Z,2.20
2018-02-20T19:10:15.638Z,2.20
2018-02-20T19:12:43.066Z,2.20
2018-02-20T19:15:10.489Z,2.20
2018-02-20T19:17:37.998Z,2.20
2018-02-20T19:20:05.421Z,2.20
2018-02-20T19:22:32.912Z,2.10
2018-02-20T19:25:00.336Z,2.00
2018-02-20T19:27:27.814Z,2.00
2018-02-20T19:29:55.248Z,2.00
2018-02-20T19:32:22.670Z,2.10
2018-02-20T19:34:50.111Z,2.00
2018-02-20T19:37:18.279Z,2.00
2018-02-20T19:39:45.703Z,2.00
2018-02-20T19:42:13.103Z,2.00
2018-02-20T19:44:40.531Z,2.10
2018-02-20T19:47:07.980Z,2.00
2018-02-20T19:49:36.135Z,2.10
2018-02-20T19:52:04.326Z,2.10
2018-02-20T19:54:32.511Z,2.10
2018-02-20T19:57:00.726Z,2.10
2018-02-20T19:59:28.202Z,2.10
2018-02-20T20:01:55.678Z,2.10
2018-02-20T20:04:23.135Z,2.10
2018-02-20T20:06:50.606Z,2.00
2018-02-20T20:09:18.049Z,2.00
2018-02-20T20:11:46.275Z,2.00
2018-02-20T20:14:13.683Z,2.00
2018-02-20T20:16:41.098Z,2.00
2018-02-20T20:19:08.510Z,2.00
2018-02-20T20:21:35.946Z,2.00
2018-02-20T20:24:03.410Z,2.00
2018-02-20T20:26:30.822Z,2.00
2018-02-20T20:28:58.248Z,2.10
2018-02-20T20:31:25.675Z,2.10
2018-02-20T20:33:53.869Z,2.20
2018-02-20T20:36:21.307Z,2.10
2018-02-20T20:38:48.727Z,2.20
2018-02-20T20:41:16.168Z,2.20
2018-02-20T20:43:43.575Z,2.20
2018-02-20T20:46:11.022Z,2.10
2018-02-20T20:48:39.200Z,2.10
2018-02-20T20:51:07.397Z,2.10
2018-02-20T20:53:34.820Z,2.10
2018-02-20T20:56:02.326Z,2.10
2018-02-20T20:58:29.753Z,2.10
2018-02-20T21:00:57.162Z,2.10
2018-02-20T21:03:24.574Z,2.00
2018-02-20T21:05:51.985Z,2.00
2018-02-20T21:08:20.169Z,2.00
2018-02-20T21:10:48.375Z,1.90
2018-02-20T21:13:15.793Z,1.90
2018-02-20T21:15:43.305Z,1.90
2018-02-20T21:18:10.748Z,1.90
2018-02-20T21:20:38.245Z,1.90
2018-02-20T21:23:05.713Z,1.80
2018-02-20T21:25:33.255Z,1.80
2018-02-20T21:28:00.779Z,1.70
2018-02-20T21:30:28.337Z,1.70
2018-02-20T21:32:56.565Z,1.70
2018-02-20T21:35:23.932Z,1.70
2018-02-20T21:37:52.871Z,1.70
2018-02-20T21:40:21.054Z,1.70
2018-02-20T21:42:49.262Z,1.70
2018-02-20T21:45:16.734Z,1.70
2018-02-20T21:47:44.956Z,1.60
2018-02-20T21:50:12.400Z,1.50
2018-02-20T21:52:39.960Z,1.50
2018-02-20T21:55:08.142Z,1.50
2018-02-20T21:57:35.569Z,1.50
2018-02-20T22:00:03.070Z,1.40
2018-02-20T22:02:30.503Z,1.40
2018-02-20T22:04:57.921Z,1.40
2018-02-20T22:07:25.338Z,1.30
2018-02-20T22:09:52.780Z,1.20
2018-02-20T22:12:20.174Z,1.20
2018-02-20T22:14:47.695Z,1.10
2018-02-20T22:17:15.867Z,1.10
2018-02-20T22:19:44.050Z,1.10
2018-02-20T22:22:11.634Z,1.10
2018-02-20T22:24:39.804Z,1.10
2018-02-20T22:27:07.978Z,1.10
2018-02-20T22:29:36.165Z,1.10
2018-02-20T22:32:04.378Z,1.10
2018-02-20T22:34:31.785Z,1.10
2018-02-20T22:36:59.210Z,1.00
2018-02-20T22:39:26.625Z,0.90
2018-02-20T22:41:54.042Z,0.90
2018-02-20T22:44:21.522Z,0.90
2018-02-20T22:46:48.981Z,0.80
2018-02-20T22:49:16.408Z,0.80
2018-02-20T22:51:43.833Z,0.80
2018-02-20T22:54:11.290Z,0.80
2018-02-20T22:56:39.455Z,0.90
2018-02-20T22:59:07.625Z,0.90
2018-02-20T23:01:35.039Z,0.90
2018-02-20T23:04:02.467Z,0.90
2018-02-20T23:06:30.649Z,0.90
2018-02-20T23:08:58.078Z,0.90
2018-02-20T23:11:37.363Z,0.90
2018-02-20T23:14:04.762Z,1.00
2018-02-20T23:16:32.170Z,1.00
2018-02-20T23:18:59.606Z,0.90
2018-02-20T23:21:27.063Z,0.90
2018-02-20T23:23:54.545Z,1.00
2018-02-20T23:26:22.029Z,1.00
2018-02-20T23:28:49.483Z,1.00
2018-02-20T23:31:17.795Z,0.90
2018-02-20T23:33:45.285Z,0.90
2018-02-20T23:36:12.702Z,0.80
2018-02-20T23:38:40.115Z,0.80
2018-02-20T23:41:07.540Z,0.80
2018-02-20T23:43:34.993Z,0.80
2018-02-20T23:46:03.167Z,0.80
2018-02-20T23:48:30.649Z,0.80
2018-02-20T23:51:03.814Z,0.80
2018-02-20T23:53:32.034Z,0.70
2018-02-20T23:55:59.550Z,0.70
2018-02-20T23:58:27.751Z,0.70
